createdAt,value
2017-10-29T00:00:24.866Z,24.59
2017-10-29T00:00:53.062Z,24.63
2017-10-29T00:01:21.151Z,24.62
2017-10-29T00:01:49.209Z,24.63
2017-10-29T00:02:17.369Z,24.59
2017-10-29T00:02:45.418Z,24.65
2017-10-29T00:03:13.356Z,24.56
2017-10-29T00:03:41.526Z,24.62
2017-10-29T00:04:09.663Z,24.62
2017-10-29T00:04:37.797Z,24.59
2017-10-29T00:05:05.918Z,24.74
2017-10-29T00:05:34.089Z,24.61
2017-10-29T00:06:02.270Z,24.63
2017-10-29T00:06:30.517Z,24.59
2017-10-29T00:06:58.571Z,24.59
2017-10-29T00:07:26.711Z,24.63
2017-10-29T00:07:54.650Z,24.56
2017-10-29T00:08:22.810Z,24.63
2017-10-29T00:08:50.768Z,24.66
2017-10-29T00:09:18.846Z,24.59
2017-10-29T00:09:46.787Z,24.63
2017-10-29T00:10:14.813Z,24.69
2017-10-29T00:10:42.877Z,24.59
2017-10-29T00:11:10.956Z,24.68
2017-10-29T00:11:38.963Z,24.66
2017-10-29T00:12:07.242Z,24.68
2017-10-29T00:12:35.372Z,24.69
2017-10-29T00:13:03.446Z,24.75
2017-10-29T00:13:31.288Z,24.71
2017-10-29T00:13:59.837Z,24.77
2017-10-29T00:14:28.382Z,24.78
2017-10-29T00:14:56.566Z,24.75
2017-10-29T00:15:24.774Z,24.71
2017-10-29T00:15:52.929Z,24.78
2017-10-29T00:16:21.363Z,24.84
2017-10-29T00:16:49.894Z,24.85
2017-10-29T00:17:18.103Z,24.71
2017-10-29T00:17:46.714Z,24.77
2017-10-29T00:18:15.423Z,24.82
2017-10-29T00:18:44.044Z,24.82
2017-10-29T00:19:12.602Z,24.79
2017-10-29T00:19:41.245Z,24.77
2017-10-29T00:20:09.834Z,24.81
2017-10-29T00:20:38.593Z,24.84
2017-10-29T00:21:07.397Z,24.82
2017-10-29T00:21:35.916Z,24.88
2017-10-29T00:22:04.467Z,24.82
2017-10-29T00:22:32.823Z,24.79
2017-10-29T00:23:01.272Z,24.82
2017-10-29T00:23:29.689Z,24.77
2017-10-29T00:23:58.145Z,24.82
2017-10-29T00:24:26.684Z,24.82
2017-10-29T00:24:55.224Z,24.86
2017-10-29T00:25:23.713Z,24.79
2017-10-29T00:25:52.135Z,24.78
2017-10-29T00:26:20.466Z,24.79
2017-10-29T00:26:48.738Z,24.79
2017-10-29T00:27:17.196Z,24.82
2017-10-29T00:27:45.260Z,24.79
2017-10-29T00:28:13.498Z,24.82
2017-10-29T00:28:41.703Z,24.82
2017-10-29T00:29:09.883Z,24.84
2017-10-29T00:29:37.994Z,24.82
2017-10-29T00:30:06.015Z,24.85
2017-10-29T00:30:34.181Z,24.82
2017-10-29T00:31:02.584Z,24.81
2017-10-29T00:31:30.698Z,24.82
2017-10-29T00:31:58.847Z,24.82
2017-10-29T00:32:26.845Z,24.82
2017-10-29T00:32:54.826Z,24.78
2017-10-29T00:33:22.903Z,24.85
2017-10-29T00:33:50.921Z,24.78
2017-10-29T00:34:18.880Z,24.81
2017-10-29T00:34:46.874Z,24.78
2017-10-29T00:35:14.937Z,24.85
2017-10-29T00:35:43.162Z,24.81
2017-10-29T00:36:11.706Z,24.75
2017-10-29T00:36:40.506Z,24.74
2017-10-29T00:37:08.969Z,24.81
2017-10-29T00:37:37.501Z,24.74
2017-10-29T00:38:06.002Z,24.77
2017-10-29T00:38:34.497Z,24.78
2017-10-29T00:39:02.890Z,24.77
2017-10-29T00:39:31.404Z,24.74
2017-10-29T00:40:00.138Z,24.77
2017-10-29T00:40:28.634Z,24.66
2017-10-29T00:40:57.190Z,24.68
2017-10-29T00:41:25.644Z,24.69
2017-10-29T00:41:54.103Z,24.75
2017-10-29T00:42:22.591Z,24.69
2017-10-29T00:42:51.276Z,24.62
2017-10-29T00:43:19.844Z,24.61
2017-10-29T00:43:48.407Z,24.59
2017-10-29T00:44:17.082Z,24.56
2017-10-29T00:44:45.787Z,24.59
2017-10-29T00:45:14.369Z,24.62
2017-10-29T00:45:42.639Z,24.63
2017-10-29T00:46:11.057Z,24.63
2017-10-29T00:46:39.860Z,24.58
2017-10-29T00:47:08.413Z,24.59
2017-10-29T00:47:37.255Z,24.56
2017-10-29T00:48:05.939Z,24.61
2017-10-29T00:48:34.597Z,24.65
2017-10-29T00:49:03.304Z,24.65
2017-10-29T00:49:31.909Z,24.62
2017-10-29T00:50:00.562Z,24.69
2017-10-29T00:50:29.258Z,24.75
2017-10-29T00:50:57.826Z,24.77
2017-10-29T00:51:26.219Z,24.66
2017-10-29T00:51:54.692Z,24.68
2017-10-29T00:52:23.393Z,24.69
2017-10-29T00:52:52.071Z,24.68
2017-10-29T00:53:20.464Z,24.69
2017-10-29T00:53:48.961Z,24.69
2017-10-29T00:54:17.523Z,24.69
2017-10-29T00:54:45.813Z,24.62
2017-10-29T00:55:14.591Z,24.68
2017-10-29T00:55:43.231Z,24.68
2017-10-29T00:56:11.628Z,24.65
2017-10-29T00:56:40.042Z,24.74
2017-10-29T00:57:08.554Z,24.65
2017-10-29T00:57:36.774Z,24.69
2017-10-29T00:58:05.576Z,24.71
2017-10-29T00:58:34.151Z,24.75
2017-10-29T00:59:02.632Z,24.66
2017-10-29T00:59:31.161Z,24.77
2017-10-29T00:59:59.467Z,24.74
2017-10-29T01:00:27.957Z,24.69
2017-10-29T01:00:56.635Z,24.66
2017-10-29T01:01:24.974Z,24.78
2017-10-29T01:01:53.239Z,24.68
2017-10-29T01:02:21.440Z,24.78
2017-10-29T01:02:50.102Z,24.77
2017-10-29T01:03:18.188Z,24.75
2017-10-29T01:03:46.247Z,24.68
2017-10-29T01:04:14.113Z,24.69
2017-10-29T01:04:42.143Z,24.71
2017-10-29T01:05:10.271Z,24.75
2017-10-29T01:05:38.463Z,24.71
2017-10-29T01:06:06.388Z,24.63
2017-10-29T01:06:34.613Z,24.69
2017-10-29T01:07:02.781Z,24.74
2017-10-29T01:07:30.920Z,24.77
2017-10-29T01:07:59.049Z,24.78
2017-10-29T01:08:27.209Z,24.69
2017-10-29T01:08:55.202Z,24.77
2017-10-29T01:09:23.231Z,24.75
2017-10-29T01:09:51.467Z,24.74
2017-10-29T01:10:19.894Z,24.75
2017-10-29T01:10:47.986Z,24.77
2017-10-29T01:11:15.910Z,24.75
2017-10-29T01:11:43.977Z,24.77
2017-10-29T01:12:12.028Z,24.75
2017-10-29T01:12:40.172Z,24.74
2017-10-29T01:13:08.325Z,24.78
2017-10-29T01:13:36.372Z,24.78
2017-10-29T01:14:04.414Z,24.77
2017-10-29T01:14:32.352Z,24.69
2017-10-29T01:15:00.483Z,24.74
2017-10-29T01:15:28.538Z,24.74
2017-10-29T01:15:56.711Z,24.71
2017-10-29T01:16:24.905Z,24.78
2017-10-29T01:16:52.987Z,24.77
2017-10-29T01:17:21.056Z,24.74
2017-10-29T01:17:49.135Z,24.77
2017-10-29T01:18:17.279Z,24.75
2017-10-29T01:18:45.742Z,24.75
2017-10-29T01:19:14.269Z,24.74
2017-10-29T01:19:42.766Z,24.71
2017-10-29T01:20:11.141Z,24.74
2017-10-29T01:20:39.223Z,24.77
2017-10-29T01:21:07.401Z,24.71
2017-10-29T01:21:35.552Z,24.78
2017-10-29T01:22:04.481Z,24.75
2017-10-29T01:22:32.516Z,24.75
2017-10-29T01:23:00.544Z,24.74
2017-10-29T01:23:28.704Z,24.75
2017-10-29T01:23:56.877Z,24.75
2017-10-29T01:24:25.036Z,24.78
2017-10-29T01:24:53.061Z,24.77
2017-10-29T01:25:20.991Z,24.71
2017-10-29T01:25:49.063Z,24.77
2017-10-29T01:26:17.264Z,24.77
2017-10-29T01:26:45.428Z,24.75
2017-10-29T01:27:14.283Z,24.69
2017-10-29T01:27:42.889Z,24.78
2017-10-29T01:28:11.074Z,24.78
2017-10-29T01:28:39.471Z,24.78
2017-10-29T01:29:07.545Z,24.78
2017-10-29T01:29:35.612Z,24.68
2017-10-29T01:30:03.753Z,24.68
2017-10-29T01:30:32.049Z,24.74
2017-10-29T01:31:00.224Z,24.69
2017-10-29T01:31:28.410Z,24.62
2017-10-29T01:31:56.567Z,24.65
2017-10-29T01:32:24.604Z,24.65
2017-10-29T01:32:52.685Z,24.65
2017-10-29T01:33:20.714Z,24.59
2017-10-29T01:33:48.833Z,24.59
2017-10-29T01:34:16.841Z,24.63
2017-10-29T01:34:45.350Z,24.59
2017-10-29T01:35:14.022Z,24.59
2017-10-29T01:35:42.650Z,24.66
2017-10-29T01:36:11.329Z,24.55
2017-10-29T01:36:40.014Z,24.56
2017-10-29T01:37:08.501Z,24.61
2017-10-29T01:37:37.270Z,24.53
2017-10-29T01:38:05.844Z,24.51
2017-10-29T01:38:34.592Z,24.59
2017-10-29T01:39:03.027Z,24.53
2017-10-29T01:39:31.219Z,24.53
2017-10-29T01:39:59.667Z,24.46
2017-10-29T01:40:28.147Z,24.41
2017-10-29T01:40:56.715Z,24.41
2017-10-29T01:41:25.351Z,24.56
2017-10-29T01:41:53.962Z,24.43
2017-10-29T01:42:22.441Z,24.48
2017-10-29T01:42:50.975Z,24.48
2017-10-29T01:43:19.695Z,24.41
2017-10-29T01:43:48.091Z,24.47
2017-10-29T01:44:16.667Z,24.41
2017-10-29T01:44:45.246Z,24.47
2017-10-29T01:45:13.709Z,24.38
2017-10-29T01:45:42.373Z,24.4
2017-10-29T01:46:11.099Z,24.43
2017-10-29T01:46:39.817Z,24.41
2017-10-29T01:47:08.478Z,24.41
2017-10-29T01:47:37.035Z,24.37
2017-10-29T01:48:05.679Z,24.44
2017-10-29T01:48:34.461Z,24.36
2017-10-29T01:49:03.200Z,24.37
2017-10-29T01:49:31.854Z,24.32
2017-10-29T01:50:00.465Z,24.37
2017-10-29T01:50:28.866Z,24.44
2017-10-29T01:50:57.483Z,24.37
2017-10-29T01:51:26.048Z,24.43
2017-10-29T01:51:54.622Z,24.34
2017-10-29T01:52:22.967Z,24.34
2017-10-29T01:52:51.528Z,24.32
2017-10-29T01:53:20.031Z,24.31
2017-10-29T01:53:48.491Z,24.26
2017-10-29T01:54:17.060Z,24.22
2017-10-29T01:54:45.689Z,24.25
2017-10-29T01:55:14.126Z,24.21
2017-10-29T01:55:42.325Z,24.26
2017-10-29T01:56:10.934Z,24.21
2017-10-29T01:56:39.159Z,24.22
2017-10-29T01:57:07.530Z,24.16
2017-10-29T01:57:35.978Z,24.16
2017-10-29T01:58:04.093Z,24.13
2017-10-29T01:58:32.282Z,24.16
2017-10-29T01:59:00.427Z,24.07
2017-10-29T01:59:28.661Z,24.06
2017-10-29T01:59:56.819Z,24.06
2017-10-29T02:00:25.009Z,24.04
2017-10-29T02:00:53.239Z,23.95
2017-10-29T02:01:21.298Z,23.99
2017-10-29T02:01:49.472Z,23.96
2017-10-29T02:02:17.425Z,23.94
2017-10-29T02:02:45.587Z,23.95
2017-10-29T02:03:13.747Z,23.94
2017-10-29T02:03:42.255Z,23.91
2017-10-29T02:04:10.610Z,23.86
2017-10-29T02:04:39.115Z,23.91
2017-10-29T02:05:07.654Z,23.84
2017-10-29T02:05:36.092Z,23.88
2017-10-29T02:06:04.449Z,23.85
2017-10-29T02:06:32.895Z,23.88
2017-10-29T02:07:00.983Z,23.85
2017-10-29T02:07:29.267Z,23.85
2017-10-29T02:07:57.406Z,23.77
2017-10-29T02:08:25.787Z,23.76
2017-10-29T02:08:54.014Z,23.82
2017-10-29T02:09:22.536Z,23.76
2017-10-29T02:09:50.796Z,23.74
2017-10-29T02:10:18.998Z,23.81
2017-10-29T02:10:47.238Z,23.76
2017-10-29T02:11:15.411Z,23.71
2017-10-29T02:11:43.501Z,23.73
2017-10-29T02:12:12.300Z,23.77
2017-10-29T02:12:40.458Z,23.7
2017-10-29T02:13:08.622Z,23.7
2017-10-29T02:13:37.132Z,23.66
2017-10-29T02:14:05.286Z,23.69
2017-10-29T02:14:33.600Z,23.73
2017-10-29T02:15:02.227Z,23.7
2017-10-29T02:15:30.900Z,23.69
2017-10-29T02:15:59.544Z,23.64
2017-10-29T02:16:28.115Z,23.66
2017-10-29T02:16:56.681Z,23.66
2017-10-29T02:17:25.500Z,23.7
2017-10-29T02:17:54.188Z,23.64
2017-10-29T02:18:22.630Z,23.55
2017-10-29T02:18:50.737Z,23.56
2017-10-29T02:19:19.161Z,23.51
2017-10-29T02:19:47.919Z,23.52
2017-10-29T02:20:16.202Z,23.55
2017-10-29T02:20:44.689Z,23.52
2017-10-29T02:21:13.336Z,23.52
2017-10-29T02:21:41.902Z,23.58
2017-10-29T02:22:10.522Z,23.55
2017-10-29T02:22:39.351Z,23.59
2017-10-29T02:23:07.538Z,23.55
2017-10-29T02:23:35.924Z,23.59
2017-10-29T02:24:04.596Z,23.55
2017-10-29T02:24:33.266Z,23.56
2017-10-29T02:25:01.477Z,23.45
2017-10-29T02:25:29.999Z,23.54
2017-10-29T02:25:58.490Z,23.56
2017-10-29T02:26:27.125Z,23.58
2017-10-29T02:26:55.595Z,23.48
2017-10-29T02:27:24.218Z,23.58
2017-10-29T02:27:52.926Z,23.55
2017-10-29T02:28:21.572Z,23.44
2017-10-29T02:28:50.183Z,23.47
2017-10-29T02:29:18.813Z,23.48
2017-10-29T02:29:47.496Z,23.44
2017-10-29T02:30:16.102Z,23.36
2017-10-29T02:30:44.846Z,23.4
2017-10-29T02:31:13.581Z,23.4
2017-10-29T02:31:42.317Z,23.32
2017-10-29T02:32:11.018Z,23.36
2017-10-29T02:32:39.723Z,23.42
2017-10-29T02:33:08.455Z,23.34
2017-10-29T02:33:36.771Z,23.2
2017-10-29T02:34:05.288Z,23.28
2017-10-29T02:34:33.981Z,23.23
2017-10-29T02:35:02.542Z,23.23
2017-10-29T02:35:31.367Z,23.23
2017-10-29T02:36:00.179Z,23.21
2017-10-29T02:36:28.730Z,23.28
2017-10-29T02:36:57.362Z,23.23
2017-10-29T02:37:25.889Z,23.25
2017-10-29T02:37:54.639Z,23.21
2017-10-29T02:38:23.663Z,23.23
2017-10-29T02:38:52.337Z,23.26
2017-10-29T02:39:20.835Z,23.21
2017-10-29T02:39:49.528Z,23.28
2017-10-29T02:40:18.240Z,23.23
2017-10-29T02:40:47.025Z,23.23
2017-10-29T02:41:15.830Z,23.23
2017-10-29T02:41:44.665Z,23.23
2017-10-29T02:42:13.514Z,23.25
2017-10-29T02:42:42.164Z,23.13
2017-10-29T02:43:10.908Z,23.17
2017-10-29T02:43:39.703Z,23.2
2017-10-29T02:44:08.208Z,23.13
2017-10-29T02:44:36.748Z,23.17
2017-10-29T02:45:05.524Z,23.25
2017-10-29T02:45:34.367Z,23.25
2017-10-29T02:46:03.220Z,23.16
2017-10-29T02:46:31.762Z,23.21
2017-10-29T02:47:00.478Z,23.21
2017-10-29T02:47:29.192Z,23.18
2017-10-29T02:47:57.966Z,23.17
2017-10-29T02:48:26.617Z,23.28
2017-10-29T02:48:55.211Z,23.11
2017-10-29T02:49:23.783Z,23.18
2017-10-29T02:49:52.351Z,23.16
2017-10-29T02:50:21.064Z,23.11
2017-10-29T02:50:49.651Z,23.1
2017-10-29T02:51:18.275Z,23.1
2017-10-29T02:51:46.775Z,23.06
2017-10-29T02:52:15.299Z,23.13
2017-10-29T02:52:43.976Z,23.07
2017-10-29T02:53:12.463Z,23.02
2017-10-29T02:53:41.140Z,22.93
2017-10-29T02:54:09.518Z,22.99
2017-10-29T02:54:38.042Z,23.02
2017-10-29T02:55:06.816Z,22.95
2017-10-29T02:55:35.493Z,22.96
2017-10-29T02:56:04.122Z,23.02
2017-10-29T02:56:32.879Z,22.95
2017-10-29T02:57:01.469Z,22.98
2017-10-29T02:57:29.728Z,23.01
2017-10-29T02:57:58.342Z,23.02
2017-10-29T02:58:27.064Z,23.06
2017-10-29T02:58:55.528Z,23.06
2017-10-29T02:59:24.284Z,23.06
2017-10-29T02:59:52.976Z,23.08
2017-10-29T03:00:21.588Z,23.06
2017-10-29T03:00:50.266Z,23.07
2017-10-29T03:01:19.009Z,23.07
2017-10-29T03:01:47.564Z,23.07
2017-10-29T03:02:16.185Z,23.07
2017-10-29T03:02:44.770Z,23.1
2017-10-29T03:03:13.635Z,23.13
2017-10-29T03:03:42.437Z,23.07
2017-10-29T03:04:11.020Z,23.04
2017-10-29T03:04:39.735Z,23.06
2017-10-29T03:05:08.406Z,23.14
2017-10-29T03:05:37.224Z,23.1
2017-10-29T03:06:05.907Z,23.07
2017-10-29T03:06:34.610Z,23.07
2017-10-29T03:07:03.338Z,23.08
2017-10-29T03:07:32.113Z,23.07
2017-10-29T03:08:00.650Z,23.06
2017-10-29T03:08:29.120Z,23.06
2017-10-29T03:08:57.658Z,23.04
2017-10-29T03:09:26.131Z,23.07
2017-10-29T03:09:54.594Z,23.06
2017-10-29T03:10:23.312Z,23.02
2017-10-29T03:10:51.822Z,22.99
2017-10-29T03:11:20.658Z,23.01
2017-10-29T03:11:49.362Z,23.01
2017-10-29T03:12:17.794Z,23.02
2017-10-29T03:12:46.238Z,22.96
2017-10-29T03:13:14.519Z,22.99
2017-10-29T03:13:43.008Z,23.01
2017-10-29T03:14:11.680Z,22.92
2017-10-29T03:14:40.021Z,22.93
2017-10-29T03:15:08.522Z,22.91
2017-10-29T03:15:37.262Z,22.98
2017-10-29T03:16:05.950Z,22.95
2017-10-29T03:16:34.669Z,22.83
2017-10-29T03:17:03.275Z,22.91
2017-10-29T03:17:31.648Z,22.84
2017-10-29T03:18:00.456Z,22.77
2017-10-29T03:18:29.237Z,22.83
2017-10-29T03:18:57.842Z,22.88
2017-10-29T03:19:26.587Z,22.78
2017-10-29T03:19:55.153Z,22.77
2017-10-29T03:20:24.146Z,22.77
2017-10-29T03:20:52.451Z,22.74
2017-10-29T03:21:20.627Z,22.78
2017-10-29T03:21:48.966Z,22.7
2017-10-29T03:22:17.545Z,22.71
2017-10-29T03:22:46.139Z,22.68
2017-10-29T03:23:14.823Z,22.65
2017-10-29T03:23:43.671Z,22.56
2017-10-29T03:24:12.474Z,22.58
2017-10-29T03:24:41.280Z,22.58
2017-10-29T03:25:09.708Z,22.52
2017-10-29T03:25:38.406Z,22.4
2017-10-29T03:26:07.306Z,22.38
2017-10-29T03:26:36.017Z,22.38
2017-10-29T03:27:04.807Z,22.41
2017-10-29T03:27:33.255Z,22.36
2017-10-29T03:28:02.058Z,22.34
2017-10-29T03:28:30.838Z,22.37
2017-10-29T03:28:59.597Z,22.36
2017-10-29T03:29:28.323Z,22.38
2017-10-29T03:29:56.919Z,22.4
2017-10-29T03:30:25.576Z,22.34
2017-10-29T03:30:54.158Z,22.34
2017-10-29T03:31:22.970Z,22.34
2017-10-29T03:31:51.438Z,22.28
2017-10-29T03:32:20.137Z,22.31
2017-10-29T03:32:48.646Z,22.31
2017-10-29T03:33:17.319Z,22.34
2017-10-29T03:33:45.830Z,22.31
2017-10-29T03:34:14.259Z,22.25
2017-10-29T03:34:42.710Z,22.31
2017-10-29T03:35:11.300Z,22.4
2017-10-29T03:35:39.580Z,22.36
2017-10-29T03:36:07.791Z,22.34
2017-10-29T03:36:35.983Z,22.38
2017-10-29T03:37:04.156Z,22.33
2017-10-29T03:37:32.305Z,22.43
2017-10-29T03:38:00.383Z,22.4
2017-10-29T03:38:28.398Z,22.4
2017-10-29T03:38:56.582Z,22.38
2017-10-29T03:39:24.733Z,22.33
2017-10-29T03:39:52.782Z,22.37
2017-10-29T03:40:20.855Z,22.33
2017-10-29T03:40:49.794Z,22.3
2017-10-29T03:41:17.851Z,22.34
2017-10-29T03:41:45.994Z,22.23
2017-10-29T03:42:14.142Z,22.22
2017-10-29T03:42:42.365Z,22.18
2017-10-29T03:43:10.942Z,22.16
2017-10-29T03:43:39.620Z,22.16
2017-10-29T03:44:07.992Z,22.21
2017-10-29T03:44:36.735Z,22.19
2017-10-29T03:45:05.233Z,22.18
2017-10-29T03:45:33.557Z,22.26
2017-10-29T03:46:01.549Z,22.23
2017-10-29T03:46:29.664Z,22.3
2017-10-29T03:46:57.704Z,22.25
2017-10-29T03:47:25.785Z,22.31
2017-10-29T03:47:53.949Z,22.26
2017-10-29T03:48:22.000Z,22.3
2017-10-29T03:48:50.060Z,22.26
2017-10-29T03:49:18.246Z,22.31
2017-10-29T03:49:46.334Z,22.25
2017-10-29T03:50:14.393Z,22.26
2017-10-29T03:50:42.465Z,22.33
2017-10-29T03:51:10.602Z,22.31
2017-10-29T03:51:38.753Z,22.3
2017-10-29T03:52:06.907Z,22.28
2017-10-29T03:52:34.966Z,22.3
2017-10-29T03:53:03.101Z,22.33
2017-10-29T03:53:31.243Z,22.25
2017-10-29T03:53:59.400Z,22.31
2017-10-29T03:54:27.562Z,22.15
2017-10-29T03:54:55.558Z,22.18
2017-10-29T03:55:23.764Z,22.18
2017-10-29T03:55:51.862Z,22.12
2017-10-29T03:56:20.052Z,22.14
2017-10-29T03:56:48.224Z,22.15
2017-10-29T03:57:16.529Z,22.01
2017-10-29T03:57:45.064Z,21.99
2017-10-29T03:58:13.638Z,22
2017-10-29T03:58:42.274Z,22.06
2017-10-29T03:59:10.616Z,22
2017-10-29T03:59:39.179Z,21.99
2017-10-29T04:00:07.474Z,21.99
2017-10-29T04:00:35.660Z,21.99
2017-10-29T04:01:03.826Z,21.92
2017-10-29T04:01:31.923Z,22.01
2017-10-29T04:02:00.109Z,22.04
2017-10-29T04:02:28.169Z,21.97
2017-10-29T04:02:56.213Z,21.97
2017-10-29T04:03:24.291Z,21.89
2017-10-29T04:03:52.449Z,21.94
2017-10-29T04:04:20.508Z,22.01
2017-10-29T04:04:48.681Z,21.96
2017-10-29T04:05:16.763Z,22.01
2017-10-29T04:05:44.824Z,21.96
2017-10-29T04:06:12.848Z,21.96
2017-10-29T04:06:40.895Z,21.97
2017-10-29T04:07:09.049Z,22.06
2017-10-29T04:07:37.213Z,22.06
2017-10-29T04:08:05.255Z,22.06
2017-10-29T04:08:33.338Z,22.08
2017-10-29T04:09:01.497Z,22.15
2017-10-29T04:09:29.408Z,22.14
2017-10-29T04:09:57.251Z,22.1
2017-10-29T04:10:25.305Z,22.07
2017-10-29T04:10:53.438Z,22.19
2017-10-29T04:11:21.489Z,22.21
2017-10-29T04:11:49.560Z,22.21
2017-10-29T04:12:17.753Z,22.16
2017-10-29T04:12:45.892Z,22.19
2017-10-29T04:13:14.039Z,22.18
2017-10-29T04:13:42.080Z,22.28
2017-10-29T04:14:10.258Z,22.18
2017-10-29T04:14:38.314Z,22.33
2017-10-29T04:15:06.952Z,22.18
2017-10-29T04:15:35.536Z,22.18
2017-10-29T04:16:03.905Z,22.21
2017-10-29T04:16:32.585Z,22.19
2017-10-29T04:17:00.792Z,22.19
2017-10-29T04:17:29.090Z,22.23
2017-10-29T04:17:57.375Z,22.15
2017-10-29T04:18:25.424Z,22.12
2017-10-29T04:18:53.397Z,22.25
2017-10-29T04:19:21.564Z,22.15
2017-10-29T04:19:49.606Z,22.21
2017-10-29T04:20:17.665Z,22.25
2017-10-29T04:20:45.581Z,22.16
2017-10-29T04:21:13.698Z,22.31
2017-10-29T04:21:41.754Z,22.25
2017-10-29T04:22:09.892Z,22.26
2017-10-29T04:22:37.917Z,22.3
2017-10-29T04:23:05.957Z,22.34
2017-10-29T04:23:33.981Z,22.3
2017-10-29T04:24:02.118Z,22.34
2017-10-29T04:24:29.957Z,22.25
2017-10-29T04:24:57.903Z,22.37
2017-10-29T04:25:25.947Z,22.33
2017-10-29T04:25:54.083Z,22.33
2017-10-29T04:26:22.123Z,22.3
2017-10-29T04:26:50.176Z,22.34
2017-10-29T04:27:18.189Z,22.3
2017-10-29T04:27:46.376Z,22.3
2017-10-29T04:28:14.656Z,22.33
2017-10-29T04:28:42.780Z,22.34
2017-10-29T04:29:10.826Z,22.3
2017-10-29T04:29:38.751Z,22.37
2017-10-29T04:30:06.776Z,22.36
2017-10-29T04:30:34.957Z,22.3
2017-10-29T04:31:03.138Z,22.3
2017-10-29T04:31:31.280Z,22.36
2017-10-29T04:31:59.341Z,22.4
2017-10-29T04:32:27.176Z,22.38
2017-10-29T04:32:55.294Z,22.41
2017-10-29T04:33:23.332Z,22.44
2017-10-29T04:33:51.627Z,22.46
2017-10-29T04:34:20.461Z,22.38
2017-10-29T04:34:49.092Z,22.43
2017-10-29T04:35:17.526Z,22.44
2017-10-29T04:35:45.904Z,22.38
2017-10-29T04:36:14.321Z,22.33
2017-10-29T04:36:42.605Z,22.34
2017-10-29T04:37:10.827Z,22.33
2017-10-29T04:37:39.476Z,22.34
2017-10-29T04:38:08.128Z,22.34
2017-10-29T04:38:36.703Z,22.34
2017-10-29T04:39:05.135Z,22.33
2017-10-29T04:39:33.747Z,22.34
2017-10-29T04:40:02.226Z,22.3
2017-10-29T04:40:30.775Z,22.3
2017-10-29T04:40:59.437Z,22.25
2017-10-29T04:41:27.958Z,22.21
2017-10-29T04:41:56.334Z,22.22
2017-10-29T04:42:24.456Z,22.16
2017-10-29T04:42:52.614Z,22.22
2017-10-29T04:43:20.787Z,22.22
2017-10-29T04:43:48.944Z,22.21
2017-10-29T04:44:16.928Z,22.23
2017-10-29T04:44:44.868Z,22.21
2017-10-29T04:45:12.912Z,22.18
2017-10-29T04:45:40.967Z,22.16
2017-10-29T04:46:09.065Z,22.14
2017-10-29T04:46:37.210Z,22.18
2017-10-29T04:47:05.277Z,22.16
2017-10-29T04:47:33.408Z,22.21
2017-10-29T04:48:01.586Z,22.19
2017-10-29T04:48:29.642Z,22.19
2017-10-29T04:48:57.576Z,22.21
2017-10-29T04:49:25.713Z,22.21
2017-10-29T04:49:53.780Z,22.3
2017-10-29T04:50:21.841Z,22.33
2017-10-29T04:50:49.866Z,22.31
2017-10-29T04:51:17.936Z,22.26
2017-10-29T04:51:45.962Z,22.33
2017-10-29T04:52:13.894Z,22.3
2017-10-29T04:52:41.858Z,22.26
2017-10-29T04:53:09.931Z,22.26
2017-10-29T04:53:38.049Z,22.26
2017-10-29T04:54:06.234Z,22.25
2017-10-29T04:54:34.391Z,22.26
2017-10-29T04:55:02.462Z,22.28
2017-10-29T04:55:30.392Z,22.37
2017-10-29T04:55:58.536Z,22.31
2017-10-29T04:56:26.591Z,22.3
2017-10-29T04:56:54.546Z,22.34
2017-10-29T04:57:22.609Z,22.31
2017-10-29T04:57:50.767Z,22.28
2017-10-29T04:58:18.924Z,22.34
2017-10-29T04:58:47.008Z,22.31
2017-10-29T04:59:14.998Z,22.37
2017-10-29T04:59:43.182Z,22.3
2017-10-29T05:00:11.325Z,22.37
2017-10-29T05:00:39.487Z,22.37
2017-10-29T05:01:07.411Z,22.34
2017-10-29T05:01:35.332Z,22.33
2017-10-29T05:02:03.294Z,22.33
2017-10-29T05:02:31.374Z,22.31
2017-10-29T05:02:59.518Z,22.33
2017-10-29T05:03:27.554Z,22.28
2017-10-29T05:03:55.707Z,22.3
2017-10-29T05:04:23.864Z,22.41
2017-10-29T05:04:51.907Z,22.31
2017-10-29T05:05:19.942Z,22.41
2017-10-29T05:05:48.088Z,22.4
2017-10-29T05:06:16.241Z,22.37
2017-10-29T05:06:44.352Z,22.4
2017-10-29T05:07:12.369Z,22.43
2017-10-29T05:07:40.555Z,22.37
2017-10-29T05:08:09.269Z,22.41
2017-10-29T05:08:38.021Z,22.49
2017-10-29T05:09:06.723Z,22.47
2017-10-29T05:09:35.336Z,22.52
2017-10-29T05:10:03.476Z,22.51
2017-10-29T05:10:31.425Z,22.47
2017-10-29T05:10:59.673Z,22.44
2017-10-29T05:11:27.822Z,22.44
2017-10-29T05:11:55.969Z,22.46
2017-10-29T05:12:24.030Z,22.47
2017-10-29T05:12:51.983Z,22.44
2017-10-29T05:13:20.124Z,22.41
2017-10-29T05:13:48.470Z,22.44
2017-10-29T05:14:16.540Z,22.41
2017-10-29T05:14:44.587Z,22.43
2017-10-29T05:15:12.517Z,22.38
2017-10-29T05:15:40.663Z,22.37
2017-10-29T05:16:08.430Z,22.38
2017-10-29T05:16:36.478Z,22.52
2017-10-29T05:17:04.645Z,22.51
2017-10-29T05:17:32.688Z,22.51
2017-10-29T05:18:00.816Z,22.49
2017-10-29T05:18:28.765Z,22.55
2017-10-29T05:18:56.919Z,22.46
2017-10-29T05:19:25.053Z,22.43
2017-10-29T05:19:53.088Z,22.41
2017-10-29T05:20:21.170Z,22.43
2017-10-29T05:20:49.306Z,22.38
2017-10-29T05:21:17.223Z,22.38
2017-10-29T05:21:45.258Z,22.4
2017-10-29T05:22:13.301Z,22.43
2017-10-29T05:22:41.452Z,22.3
2017-10-29T05:23:09.505Z,22.33
2017-10-29T05:23:37.686Z,22.34
2017-10-29T05:24:05.869Z,22.31
2017-10-29T05:24:33.885Z,22.31
2017-10-29T05:25:02.011Z,22.22
2017-10-29T05:25:30.143Z,22.22
2017-10-29T05:25:58.099Z,22.19
2017-10-29T05:26:26.231Z,22.19
2017-10-29T05:26:54.306Z,22.22
2017-10-29T05:27:22.454Z,22.18
2017-10-29T05:27:50.808Z,22.21
2017-10-29T05:28:18.988Z,22.19
2017-10-29T05:28:46.963Z,22.21
2017-10-29T05:29:15.142Z,22.18
2017-10-29T05:30:21.506Z,22.19
2017-10-29T05:30:49.444Z,22.19
2017-10-29T05:31:17.503Z,22.36
2017-10-29T05:31:45.448Z,22.16
2017-10-29T05:32:13.409Z,22.3
2017-10-29T05:32:41.450Z,22.31
2017-10-29T05:33:09.498Z,22.34
2017-10-29T05:33:37.623Z,22.37
2017-10-29T05:34:05.772Z,22.28
2017-10-29T05:34:33.903Z,22.31
2017-10-29T05:35:01.854Z,22.4
2017-10-29T05:35:30.007Z,22.38
2017-10-29T05:35:57.956Z,22.4
2017-10-29T05:36:26.077Z,22.37
2017-10-29T05:36:54.098Z,22.41
2017-10-29T05:37:22.148Z,22.31
2017-10-29T05:37:50.190Z,22.34
2017-10-29T05:38:18.365Z,22.34
2017-10-29T05:38:46.520Z,22.33
2017-10-29T05:39:14.684Z,22.31
2017-10-29T05:39:42.750Z,22.26
2017-10-29T05:40:10.827Z,22.3
2017-10-29T05:40:38.900Z,22.19
2017-10-29T05:41:07.081Z,22.28
2017-10-29T05:41:35.235Z,22.18
2017-10-29T05:42:03.290Z,22.23
2017-10-29T05:42:31.345Z,22.28
2017-10-29T05:42:59.480Z,22.23
2017-10-29T05:43:27.514Z,22.33
2017-10-29T05:43:55.542Z,22.33
2017-10-29T05:44:23.579Z,22.34
2017-10-29T05:44:51.727Z,22.28
2017-10-29T05:45:19.775Z,22.25
2017-10-29T05:45:47.824Z,22.22
2017-10-29T05:46:15.791Z,22.22
2017-10-29T05:46:43.836Z,22.22
2017-10-29T05:47:11.874Z,22.25
2017-10-29T05:47:40.015Z,22.21
2017-10-29T05:48:08.172Z,22.16
2017-10-29T05:48:36.283Z,22.21
2017-10-29T05:49:04.428Z,22.22
2017-10-29T05:49:32.687Z,22.19
2017-10-29T05:50:00.739Z,22.16
2017-10-29T05:50:28.793Z,22.19
2017-10-29T05:50:56.859Z,22.16
2017-10-29T05:51:25.008Z,22.14
2017-10-29T05:51:53.163Z,22.22
2017-10-29T05:52:21.104Z,22.15
2017-10-29T05:52:49.118Z,22.16
2017-10-29T05:53:17.054Z,22.15
2017-10-29T05:53:45.066Z,22.19
2017-10-29T05:54:13.096Z,22.21
2017-10-29T05:54:41.065Z,22.19
2017-10-29T05:55:09.242Z,22.26
2017-10-29T05:55:37.186Z,22.19
2017-10-29T05:56:05.197Z,22.21
2017-10-29T05:56:33.361Z,22.33
2017-10-29T05:57:01.414Z,22.3
2017-10-29T05:57:29.455Z,22.28
2017-10-29T05:57:57.602Z,22.28
2017-10-29T05:58:25.742Z,22.28
2017-10-29T05:58:53.672Z,22.34
2017-10-29T05:59:21.762Z,22.31
2017-10-29T05:59:49.709Z,22.31
2017-10-29T06:00:17.918Z,22.34
2017-10-29T06:00:45.988Z,22.36
2017-10-29T06:01:14.141Z,22.28
2017-10-29T06:01:42.155Z,22.26
2017-10-29T06:02:10.893Z,22.34
2017-10-29T06:02:39.047Z,22.31
2017-10-29T06:03:07.227Z,22.33
2017-10-29T06:03:35.313Z,22.28
2017-10-29T06:04:03.358Z,22.34
2017-10-29T06:04:31.508Z,22.26
2017-10-29T06:04:59.568Z,22.31
2017-10-29T06:05:27.634Z,22.31
2017-10-29T06:05:55.473Z,22.31
2017-10-29T06:06:24.314Z,22.31